Corvallis, Montana
Current Conditions -  °F | °C
As of 1:53 AM on Sunday 21 Dec 2014 (Local Time) from KMSO Reporting Station
Light Rain Light Rain  
Wind Chill: 30°   Ceiling: 3700
Heat Index: 37°   Visibility: 10mi
Dew Point: 34°   Wind: 9mph
Humidity: 89%   Direction: 110°ESE
Pressure: 29.57"   Gusts: NA
Location:  46.31°N, 114.11°W
Report Text: KMSO 210853Z 11008KT 10SM -RA FEW028 OVC037 03/01 A2957 RMK AO2 RAB21FZRAE13 SLP033 P0003 60007 I1001 I3004 T00280011 58030 $
Loading
Personal Weather Stations






























Interactive Weather Map New forecast layout! Learn more

10-Day Weather Forecast

Advertisements
Track Severe Weather on mobile